Lake Carroll, Illinois
Current Conditions -  °F | °C
As of 2:35 AM on Sunday 23 Nov 2014 (Local Time) from KSFY Reporting Station
Haze Haze  
Wind Chill: 45°   Ceiling: 900
Heat Index: 49°   Visibility: 5mi
Dew Point: 47°   Wind: 10mph
Humidity: 93%   Direction: 170°S
Pressure: 29.71"   Gusts: NA
Location:  42.0719°N, 89.8032°W
Report Text: KSFY 230835Z AUTO 17009KT 5SM BR OVC009 10/09 A2971 RMK AO2 T00950085
Loading
Personal Weather Stations






























Interactive Weather Map New forecast layout! Learn more

10-Day Weather Forecast

Advertisements
Track Severe Weather on mobile